Time;durP1;ratioP1;P1;durP2;ratioP2;P2;SDS_P1;SDS_P2;PMS_P1;PMS_P2;Temp;Humidity;BMP_temperature;BMP_pressure;BME280_temperature;BME280_humidity;BME280_pressure;Samples;Min_cycle;Max_cycle;Signal;HPM_P1;HPM_P2
2021/12/01 00:00:48;;;;;;;2.63;1.38;;;8.70;99.90;;;;;;4968881;28;20033;-83
2021/12/01 00:03:13;;;;;;;1.20;0.90;;;8.70;99.90;;;;;;5002921;28;20541;-83
2021/12/01 00:05:39;;;;;;;1.98;1.75;;;8.70;99.90;;;;;;5004509;28;20034;-83
2021/12/01 00:08:04;;;;;;;1.52;1.05;;;8.60;99.90;;;;;;4972011;28;20075;-83
2021/12/01 00:10:34;;;;;;;1.90;1.48;;;8.70;99.90;;;;;;4969901;28;20037;-83
2021/12/01 00:13:00;;;;;;;2.40;2.20;;;8.70;99.90;;;;;;4982957;28;20044;-83
2021/12/01 00:15:25;;;;;;;2.75;1.80;;;8.70;99.90;;;;;;5000771;28;20038;-83
2021/12/01 00:17:51;;;;;;;1.88;1.75;;;8.70;99.90;;;;;;4965469;28;20060;-83
2021/12/01 00:20:17;;;;;;;1.20;1.10;;;8.70;99.90;;;;;;4986585;28;20473;-83
2021/12/01 00:22:43;;;;;;;3.08;1.40;;;8.60;99.90;;;;;;4966428;28;20053;-83
2021/12/01 00:25:10;;;;;;;1.98;1.77;;;8.60;99.90;;;;;;4965259;28;20511;-83
2021/12/01 00:27:35;;;;;;;3.13;1.60;;;8.60;99.90;;;;;;4987269;28;20030;-83
2021/12/01 00:30:01;;;;;;;1.10;1.00;;;8.60;99.90;;;;;;4979431;28;20451;-83
2021/12/01 00:32:27;;;;;;;2.50;1.52;;;8.60;99.90;;;;;;4970809;28;20117;-83
2021/12/01 00:34:53;;;;;;;0.82;0.65;;;8.60;99.90;;;;;;4986046;28;20040;-83
2021/12/01 00:37:19;;;;;;;2.65;1.10;;;8.60;99.90;;;;;;4987723;28;20493;-83
2021/12/01 00:39:44;;;;;;;1.27;1.08;;;8.60;99.90;;;;;;4996569;28;20025;-83
2021/12/01 00:42:11;;;;;;;1.80;1.70;;;8.60;99.90;;;;;;4985585;28;20048;-83
2021/12/01 00:44:44;;;;;;;1.90;1.15;;;8.60;99.90;;;;;;4985770;28;20056;-83
2021/12/01 00:47:12;;;;;;;1.27;1.08;;;8.60;99.90;;;;;;4979823;28;20381;-83
2021/12/01 00:49:37;;;;;;;1.38;1.27;;;8.60;99.90;;;;;;4987027;28;20037;-83
2021/12/01 00:52:03;;;;;;;1.52;1.42;;;8.60;99.90;;;;;;4980422;28;20086;-83
2021/12/01 00:54:29;;;;;;;1.10;0.93;;;8.50;99.90;;;;;;4969194;28;20537;-83
2021/12/01 00:56:54;;;;;;;4.57;1.38;;;8.60;99.90;;;;;;4966720;28;20582;-83
2021/12/01 00:59:20;;;;;;;1.77;1.42;;;8.60;99.90;;;;;;4986278;28;20385;-83
2021/12/01 01:01:45;;;;;;;2.58;1.55;;;8.50;99.90;;;;;;4968688;28;20485;-83
2021/12/01 01:04:11;;;;;;;2.90;2.10;;;8.60;99.90;;;;;;4968344;28;20029;-83
2021/12/01 01:06:40;;;;;;;1.25;1.15;;;8.50;99.90;;;;;;5001243;28;20481;-83
2021/12/01 01:09:06;;;;;;;1.27;1.10;;;8.50;99.90;;;;;;4984904;28;20359;-83
2021/12/01 01:17:06;;;;;;;1.13;0.80;;;8.50;99.90;;;;;;5003428;28;20686;-83
2021/12/01 01:19:32;;;;;;;2.65;1.55;;;8.60;99.90;;;;;;4961155;28;20045;-83
2021/12/01 01:21:59;;;;;;;1.70;1.17;;;8.50;99.90;;;;;;5001057;28;20639;-83
2021/12/01 01:24:24;;;;;;;2.33;1.27;;;8.50;99.90;;;;;;4981453;28;20314;-83
2021/12/01 01:26:50;;;;;;;4.30;1.15;;;8.50;99.90;;;;;;4961168;28;20393;-84
2021/12/01 01:29:20;;;;;;;2.38;1.33;;;8.50;99.90;;;;;;4999647;28;20529;-83
2021/12/01 01:31:46;;;;;;;1.77;1.10;;;8.50;99.90;;;;;;4989372;28;20064;-83
2021/12/01 01:34:12;;;;;;;1.98;1.23;;;8.50;99.90;;;;;;4973128;28;20049;-83
2021/12/01 01:36:37;;;;;;;0.55;0.55;;;8.50;99.90;;;;;;5004249;28;20033;-83
2021/12/01 01:39:04;;;;;;;1.02;0.50;;;8.50;99.90;;;;;;4984416;28;20104;-83
2021/12/01 01:41:30;;;;;;;1.88;1.58;;;8.50;99.90;;;;;;5002589;28;20037;-83
2021/12/01 01:43:56;;;;;;;2.03;1.05;;;8.50;99.90;;;;;;4968364;28;20685;-83
2021/12/01 01:46:21;;;;;;;1.30;0.60;;;8.50;99.90;;;;;;4971190;28;20848;-83
2021/12/01 01:48:54;;;;;;;0.77;0.65;;;8.50;99.90;;;;;;4967858;28;20041;-83
2021/12/01 01:51:22;;;;;;;2.60;0.60;;;8.50;99.90;;;;;;5000059;28;20037;-83
2021/12/01 01:53:50;;;;;;;2.72;1.13;;;8.50;99.90;;;;;;4969246;28;20059;-83
2021/12/01 01:56:16;;;;;;;2.42;1.00;;;8.50;99.90;;;;;;4980345;28;20041;-83
2021/12/01 01:58:41;;;;;;;1.20;1.10;;;8.50;99.90;;;;;;4981703;28;20029;-83
2021/12/01 02:01:09;;;;;;;1.65;1.00;;;8.50;99.90;;;;;;4969549;28;20176;-83
2021/12/01 02:03:37;;;;;;;0.77;0.75;;;8.50;99.90;;;;;;4985331;28;20632;-83
2021/12/01 02:06:04;;;;;;;4.45;1.08;;;8.50;99.90;;;;;;5003338;28;20040;-83
2021/12/01 02:08:40;;;;;;;0.60;0.60;;;8.50;99.90;;;;;;5000657;28;20421;-83
2021/12/01 02:11:08;;;;;;;1.15;0.95;;;8.50;99.90;;;;;;4987046;28;20025;-83
2021/12/01 02:13:33;;;;;;;1.35;1.00;;;8.50;99.90;;;;;;4988865;28;20375;-83
2021/12/01 02:15:59;;;;;;;1.27;1.17;;;8.40;99.90;;;;;;4971472;28;20033;-83
2021/12/01 02:18:25;;;;;;;0.85;0.77;;;8.40;99.90;;;;;;4969447;28;20409;-84
2021/12/01 02:21:01;;;;;;;1.67;1.33;;;8.40;99.90;;;;;;4963757;28;20029;-83
2021/12/01 02:23:28;;;;;;;3.60;1.00;;;8.40;99.90;;;;;;4986701;28;20751;-83
2021/12/01 02:25:53;;;;;;;0.98;0.88;;;8.40;99.90;;;;;;4987352;28;20029;-83
2021/12/01 02:28:19;;;;;;;3.30;0.90;;;8.40;99.90;;;;;;4975657;28;20512;-83
2021/12/01 02:30:44;;;;;;;1.15;1.00;;;8.40;99.90;;;;;;4991781;28;20087;-83
2021/12/01 02:33:10;;;;;;;1.13;0.70;;;8.40;99.90;;;;;;4970045;28;20429;-83
2021/12/01 02:35:35;;;;;;;4.28;1.42;;;8.40;99.90;;;;;;5007818;28;20107;-83
2021/12/01 02:38:03;;;;;;;2.15;0.82;;;8.40;99.90;;;;;;4969741;28;20038;-83
2021/12/01 02:40:29;;;;;;;1.23;1.05;;;8.40;99.90;;;;;;4974651;28;20091;-83
2021/12/01 02:42:54;;;;;;;0.85;0.35;;;8.30;99.90;;;;;;4975555;28;20029;-83
2021/12/01 02:45:20;;;;;;;1.63;1.20;;;8.40;99.90;;;;;;5007027;28;20034;-83
2021/12/01 02:47:45;;;;;;;1.90;1.15;;;8.30;99.90;;;;;;4977224;28;20057;-83
2021/12/01 02:50:11;;;;;;;2.40;1.45;;;8.30;99.90;;;;;;4982914;28;20041;-83
2021/12/01 02:52:37;;;;;;;0.82;0.55;;;8.30;99.90;;;;;;4989937;28;20036;-83
2021/12/01 02:55:06;;;;;;;1.05;0.75;;;8.30;99.90;;;;;;5007440;28;20123;-83
2021/12/01 02:57:45;;;;;;;1.05;0.95;;;8.30;99.90;;;;;;5001455;28;20100;-83
2021/12/01 03:00:11;;;;;;;3.65;1.67;;;8.30;99.90;;;;;;4987968;28;20040;-83
2021/12/01 03:02:37;;;;;;;2.20;1.75;;;8.30;99.90;;;;;;4969475;28;20091;-80
2021/12/01 03:05:03;;;;;;;1.88;1.27;;;8.30;99.90;;;;;;4995503;28;20054;-81
2021/12/01 03:07:30;;;;;;;2.03;1.70;;;8.30;99.90;;;;;;4982567;28;20042;-81
2021/12/01 03:09:55;;;;;;;1.30;1.05;;;8.30;99.90;;;;;;4982866;28;20037;-80
2021/12/01 03:12:21;;;;;;;2.97;2.25;;;8.30;99.90;;;;;;4991416;28;20018;-81
2021/12/01 03:14:46;;;;;;;1.98;1.45;;;8.30;99.90;;;;;;4975134;28;20399;-81
2021/12/01 03:17:12;;;;;;;4.13;2.33;;;8.30;99.90;;;;;;4981712;28;20026;-81
2021/12/01 03:19:37;;;;;;;2.20;1.85;;;8.30;99.90;;;;;;4987021;28;20612;-81
2021/12/01 03:22:03;;;;;;;3.83;2.60;;;8.30;99.90;;;;;;4988200;28;20033;-80
2021/12/01 03:24:32;;;;;;;3.85;3.47;;;8.30;99.90;;;;;;4991000;28;20036;-81
2021/12/01 03:26:58;;;;;;;3.05;2.28;;;8.30;99.90;;;;;;5004621;28;20842;-80
2021/12/01 03:29:23;;;;;;;3.08;2.83;;;8.40;99.90;;;;;;4987330;28;20037;-80
2021/12/01 03:31:49;;;;;;;5.20;2.50;;;8.20;99.90;;;;;;4999853;28;20029;-80
2021/12/01 03:34:14;;;;;;;3.92;2.97;;;8.20;99.90;;;;;;4975560;28;20036;-80
2021/12/01 03:36:40;;;;;;;5.35;3.72;;;8.20;99.90;;;;;;4965638;28;20045;-80
2021/12/01 03:39:05;;;;;;;5.15;3.67;;;8.20;99.90;;;;;;4971781;28;20026;-81
2021/12/01 03:41:33;;;;;;;7.10;4.03;;;8.20;99.90;;;;;;5000358;28;20466;-80
2021/12/01 03:43:59;;;;;;;4.43;2.75;;;8.20;99.90;;;;;;4989345;28;20037;-81
2021/12/01 03:46:25;;;;;;;2.92;2.03;;;8.20;99.90;;;;;;5006853;28;20389;-80
2021/12/01 03:48:50;;;;;;;5.45;3.58;;;8.20;99.90;;;;;;4983020;28;20065;-81
2021/12/01 03:51:16;;;;;;;3.50;2.72;;;8.20;99.90;;;;;;4990016;28;20068;-81
2021/12/01 03:53:41;;;;;;;6.13;4.38;;;8.10;99.90;;;;;;5000256;28;20582;-81
2021/12/01 03:56:07;;;;;;;4.80;3.72;;;8.10;99.90;;;;;;4972737;28;20513;-81
2021/12/01 03:58:32;;;;;;;6.93;4.63;;;8.10;99.90;;;;;;4985129;28;20620;-81
2021/12/01 04:00:58;;;;;;;5.25;4.20;;;8.10;99.90;;;;;;5003537;28;20030;-80
2021/12/01 04:03:24;;;;;;;7.82;4.35;;;8.10;99.90;;;;;;4974975;28;20052;-81
2021/12/01 04:05:49;;;;;;;7.60;4.82;;;8.10;99.90;;;;;;5001039;28;20443;-80
2021/12/01 04:08:15;;;;;;;9.23;5.10;;;8.10;99.90;;;;;;4973646;28;20049;-81
2021/12/01 04:10:40;;;;;;;5.22;2.92;;;8.10;99.90;;;;;;4981597;28;20034;-81
2021/12/01 04:13:06;;;;;;;7.15;5.10;;;8.00;99.90;;;;;;4985325;28;20088;-80
2021/12/01 04:15:31;;;;;;;4.55;3.20;;;8.00;99.90;;;;;;4973566;28;20485;-81
2021/12/01 04:17:57;;;;;;;5.07;3.53;;;8.00;99.90;;;;;;4985119;28;20646;-81
2021/12/01 04:20:23;;;;;;;3.33;2.60;;;8.00;99.90;;;;;;5005430;28;20022;-81
2021/12/01 04:22:49;;;;;;;6.13;3.60;;;8.00;99.90;;;;;;5003908;28;20109;-81
2021/12/01 04:25:14;;;;;;;7.63;5.53;;;7.90;99.90;;;;;;4983667;28;20445;-81
2021/12/01 04:27:40;;;;;;;4.28;3.35;;;7.90;99.90;;;;;;5005823;28;20033;-81
2021/12/01 04:30:10;;;;;;;6.97;4.05;;;7.90;99.90;;;;;;4986001;28;20069;-81
2021/12/01 04:32:36;;;;;;;6.85;3.42;;;7.90;99.90;;;;;;4970417;28;20030;-81
2021/12/01 04:35:02;;;;;;;4.72;3.25;;;7.90;99.90;;;;;;4968816;28;20099;-80
2021/12/01 04:37:27;;;;;;;3.20;2.17;;;7.90;99.90;;;;;;4996599;28;20034;-81
2021/12/01 04:39:53;;;;;;;4.72;3.03;;;7.80;99.90;;;;;;4969851;28;20067;-81
2021/12/01 04:42:19;;;;;;;7.05;4.82;;;7.90;99.90;;;;;;4970315;28;20112;-81
2021/12/01 04:44:45;;;;;;;6.85;4.65;;;7.80;99.90;;;;;;4994023;28;20029;-80
2021/12/01 04:47:14;;;;;;;4.65;3.85;;;7.80;99.90;;;;;;4968703;28;20044;-81
2021/12/01 04:49:39;;;;;;;6.47;4.03;;;7.80;99.90;;;;;;4989447;28;20607;-81
2021/12/01 04:52:06;;;;;;;5.43;3.38;;;7.80;99.90;;;;;;4983765;28;20036;-80
2021/12/01 04:54:33;;;;;;;5.43;3.42;;;7.80;99.90;;;;;;4970582;28;20485;-81
2021/12/01 04:56:59;;;;;;;7.82;3.90;;;7.80;99.90;;;;;;4968571;28;20123;-80
2021/12/01 04:59:24;;;;;;;5.22;4.10;;;7.80;99.90;;;;;;4989188;28;20481;-80
2021/12/01 05:01:52;;;;;;;5.85;3.03;;;7.80;99.90;;;;;;4984365;28;20049;-80
2021/12/01 05:04:18;;;;;;;7.68;4.55;;;7.80;99.90;;;;;;4986607;28;20048;-81
2021/12/01 05:06:44;;;;;;;6.68;3.85;;;7.80;99.90;;;;;;4981598;28;20351;-81
2021/12/01 05:09:09;;;;;;;4.15;2.58;;;7.80;99.90;;;;;;4988913;28;20029;-80
2021/12/01 05:11:35;;;;;;;4.90;2.92;;;7.80;99.90;;;;;;4987844;28;20030;-80
2021/12/01 05:14:04;;;;;;;3.20;2.63;;;7.80;99.90;;;;;;4996495;28;20044;-80
2021/12/01 05:16:30;;;;;;;7.85;4.13;;;7.80;99.90;;;;;;4985831;28;20065;-80
2021/12/01 05:18:56;;;;;;;3.00;2.10;;;7.80;99.90;;;;;;4984407;28;20045;-80
2021/12/01 05:21:21;;;;;;;7.65;3.72;;;7.80;99.90;;;;;;4997959;28;20570;-80
2021/12/01 05:23:47;;;;;;;5.38;3.50;;;7.80;99.90;;;;;;4988640;28;20075;-80
2021/12/01 05:26:13;;;;;;;6.45;2.78;;;7.80;99.90;;;;;;4972001;28;20033;-79
2021/12/01 05:28:39;;;;;;;5.00;2.97;;;7.80;99.90;;;;;;5000945;28;20045;-80
2021/12/01 05:31:05;;;;;;;3.95;2.60;;;7.80;99.90;;;;;;5003313;28;20486;-80
2021/12/01 05:33:30;;;;;;;4.63;2.92;;;7.80;99.90;;;;;;5003181;28;20038;-79
2021/12/01 05:35:56;;;;;;;2.97;1.83;;;7.80;99.90;;;;;;4972116;28;20072;-80
2021/12/01 05:38:21;;;;;;;8.25;2.58;;;7.80;99.90;;;;;;4966550;28;20042;-80
2021/12/01 05:40:49;;;;;;;4.20;2.78;;;7.80;99.90;;;;;;4981351;28;20037;-80
2021/12/01 05:43:15;;;;;;;3.45;1.92;;;7.80;99.90;;;;;;4986994;28;20040;-79
2021/12/01 05:45:41;;;;;;;2.92;2.33;;;7.80;99.90;;;;;;4970894;28;20046;-80
2021/12/01 05:48:06;;;;;;;3.58;1.52;;;7.80;99.90;;;;;;4969292;28;20434;-80
2021/12/01 05:50:32;;;;;;;2.90;1.90;;;7.80;99.90;;;;;;4970714;28;20612;-79
2021/12/01 05:52:57;;;;;;;2.95;1.35;;;7.80;99.90;;;;;;4970630;28;20613;-80
2021/12/01 05:55:23;;;;;;;3.63;1.42;;;7.80;99.90;;;;;;4970258;28;20025;-80
2021/12/01 05:57:49;;;;;;;4.85;2.20;;;7.80;99.90;;;;;;4984108;28;20747;-79
2021/12/01 06:00:14;;;;;;;2.35;1.40;;;7.80;99.90;;;;;;4968312;28;20022;-80
2021/12/01 06:02:42;;;;;;;3.72;2.63;;;7.80;99.90;;;;;;4984873;28;20464;-80
2021/12/01 06:05:09;;;;;;;2.20;1.60;;;7.80;99.90;;;;;;4968014;28;20768;-79
2021/12/01 06:07:34;;;;;;;4.53;1.65;;;7.80;99.90;;;;;;4984927;28;20442;-79
2021/12/01 06:10:02;;;;;;;2.88;1.52;;;7.80;99.90;;;;;;4989481;28;20117;-80
2021/12/01 06:12:28;;;;;;;3.50;2.58;;;7.70;99.90;;;;;;4963561;28;20466;-80
2021/12/01 06:14:55;;;;;;;3.42;1.48;;;7.80;99.90;;;;;;4972680;28;20025;-80
2021/12/01 06:17:22;;;;;;;2.85;2.03;;;7.80;99.90;;;;;;4985927;28;20026;-80
2021/12/01 06:19:47;;;;;;;2.97;1.73;;;7.80;99.90;;;;;;4986353;28;20034;-79
2021/12/01 06:22:13;;;;;;;4.28;2.40;;;7.70;99.90;;;;;;5005512;28;20029;-80
2021/12/01 06:24:38;;;;;;;5.22;1.50;;;7.70;99.90;;;;;;4985989;28;20075;-80
2021/12/01 06:27:04;;;;;;;2.58;1.80;;;7.80;99.90;;;;;;4986894;28;20026;-80
2021/12/01 06:29:30;;;;;;;6.15;1.45;;;7.80;99.90;;;;;;4988113;28;20041;-80
2021/12/01 06:31:55;;;;;;;4.43;2.08;;;7.80;99.90;;;;;;4972798;28;20033;-80
2021/12/01 06:34:22;;;;;;;2.70;2.00;;;7.80;99.90;;;;;;4982979;28;20042;-80
2021/12/01 06:36:47;;;;;;;1.77;1.15;;;7.80;99.90;;;;;;4985742;28;20116;-80
2021/12/01 06:39:13;;;;;;;2.38;1.60;;;7.70;99.90;;;;;;4973327;28;20453;-79
2021/12/01 06:41:38;;;;;;;2.55;1.52;;;7.70;99.90;;;;;;4980706;28;20126;-80
2021/12/01 06:44:04;;;;;;;3.25;2.15;;;7.80;99.90;;;;;;4983819;28;20402;-79
2021/12/01 06:46:30;;;;;;;1.45;1.33;;;7.70;99.90;;;;;;4982665;28;20033;-80
2021/12/01 06:48:56;;;;;;;1.20;1.08;;;7.70;99.90;;;;;;5005668;28;20029;-80
2021/12/01 06:51:22;;;;;;;3.92;1.90;;;7.70;99.90;;;;;;5005324;28;20033;-80
2021/12/01 06:53:47;;;;;;;3.22;2.30;;;7.70;99.90;;;;;;4983086;28;20044;-80
2021/12/01 06:56:15;;;;;;;5.88;2.83;;;7.60;99.90;;;;;;4971804;28;20397;-80
2021/12/01 06:58:40;;;;;;;3.45;1.35;;;7.60;99.90;;;;;;4989315;28;20404;-80
2021/12/01 07:01:07;;;;;;;4.15;1.50;;;7.60;99.90;;;;;;5003032;28;20714;-80
2021/12/01 07:03:32;;;;;;;5.85;2.60;;;7.60;99.90;;;;;;5003607;28;20572;-80
2021/12/01 07:05:58;;;;;;;2.63;1.70;;;7.60;99.90;;;;;;4971601;28;20095;-80
2021/12/01 07:08:24;;;;;;;3.67;2.30;;;7.50;99.90;;;;;;4984234;28;20485;-80
2021/12/01 07:10:49;;;;;;;4.47;1.92;;;7.50;99.90;;;;;;5002334;28;20392;-80
2021/12/01 07:13:15;;;;;;;2.97;1.80;;;7.50;99.90;;;;;;4987290;28;20483;-80
2021/12/01 07:15:41;;;;;;;2.60;1.60;;;7.50;99.90;;;;;;4983916;28;20156;-80
2021/12/01 07:18:07;;;;;;;5.10;2.72;;;7.50;99.90;;;;;;5001099;28;20482;-80
2021/12/01 07:20:32;;;;;;;5.03;2.75;;;7.50;99.90;;;;;;4988194;28;20594;-80
2021/12/01 07:22:58;;;;;;;7.00;2.58;;;7.50;99.90;;;;;;4967152;28;20036;-81
2021/12/01 07:25:23;;;;;;;2.80;2.13;;;7.50;99.90;;;;;;4971559;28;20486;-81
2021/12/01 07:27:49;;;;;;;3.85;1.92;;;7.40;99.90;;;;;;4986342;28;20028;-81
2021/12/01 07:30:15;;;;;;;2.65;1.83;;;7.40;99.90;;;;;;4986954;28;20092;-80
2021/12/01 07:32:40;;;;;;;3.47;2.55;;;7.40;99.90;;;;;;4957586;28;20029;-80
2021/12/01 07:35:06;;;;;;;3.95;1.55;;;7.40;99.90;;;;;;4966486;28;20022;-80
2021/12/01 07:37:41;;;;;;;2.88;1.58;;;7.40;99.90;;;;;;4985337;28;20041;-80
2021/12/01 07:40:10;;;;;;;5.65;1.95;;;7.40;99.90;;;;;;4995505;28;20062;-81
2021/12/01 07:42:35;;;;;;;2.38;1.85;;;7.40;99.90;;;;;;4950537;28;20029;-81
2021/12/01 07:45:01;;;;;;;4.78;2.05;;;7.40;99.90;;;;;;4982530;28;20034;-80
2021/12/01 07:47:27;;;;;;;2.60;1.50;;;7.40;99.90;;;;;;5005505;28;20048;-80
2021/12/01 07:49:53;;;;;;;1.30;1.08;;;7.40;99.90;;;;;;4991167;28;20107;-80
2021/12/01 07:52:18;;;;;;;2.92;1.38;;;7.40;99.90;;;;;;5002101;28;20034;-81
2021/12/01 07:54:44;;;;;;;1.85;1.25;;;7.40;99.90;;;;;;4983373;28;20034;-80
2021/12/01 07:57:10;;;;;;;3.67;1.42;;;7.40;99.90;;;;;;4971078;28;20033;-80
2021/12/01 07:59:36;;;;;;;18.08;1.23;;;7.40;99.90;;;;;;4984218;28;20440;-80
2021/12/01 08:02:01;;;;;;;3.63;0.65;;;7.40;99.90;;;;;;4967747;28;20038;-80
2021/12/01 08:04:27;;;;;;;3.83;0.82;;;7.50;99.90;;;;;;4968569;28;20379;-80
2021/12/01 08:06:54;;;;;;;3.88;0.80;;;7.40;99.90;;;;;;4968567;28;20029;-81
2021/12/01 08:09:20;;;;;;;0.45;0.40;;;7.50;99.90;;;;;;5004527;28;20039;-79
2021/12/01 08:11:46;;;;;;;0.43;0.38;;;7.50;99.90;;;;;;5004147;28;20497;-80
2021/12/01 08:14:11;;;;;;;0.73;0.50;;;7.50;99.90;;;;;;4984925;28;20067;-80
2021/12/01 08:16:37;;;;;;;0.57;0.43;;;7.60;99.90;;;;;;4983567;28;20521;-80
2021/12/01 08:19:03;;;;;;;1.75;0.40;;;7.60;99.90;;;;;;5004133;28;20429;-80
2021/12/01 08:21:28;;;;;;;0.40;0.40;;;7.60;99.90;;;;;;4967745;28;20036;-80
2021/12/01 08:23:54;;;;;;;0.88;0.40;;;7.60;99.90;;;;;;4959659;28;20500;-80
2021/12/01 08:26:20;;;;;;;0.22;0.17;;;7.60;99.90;;;;;;4988619;28;20068;-80
2021/12/01 08:28:46;;;;;;;0.52;0.30;;;7.70;99.90;;;;;;5003195;28;20509;-80
2021/12/01 08:31:18;;;;;;;0.32;0.30;;;7.70;99.90;;;;;;4972121;28;20029;-80
2021/12/01 08:33:43;;;;;;;1.33;0.30;;;7.70;99.90;;;;;;4964386;28;20540;-80
2021/12/01 08:36:12;;;;;;;0.35;0.20;;;7.70;99.90;;;;;;4969017;28;20033;-80
2021/12/01 08:38:38;;;;;;;0.43;0.25;;;7.70;99.90;;;;;;4987663;28;20539;-80
2021/12/01 08:41:04;;;;;;;0.80;0.22;;;7.70;99.90;;;;;;4996780;28;20063;-80
2021/12/01 08:43:30;;;;;;;0.28;0.28;;;7.80;99.90;;;;;;4963643;28;20042;-80
2021/12/01 08:45:56;;;;;;;0.68;0.30;;;7.70;99.90;;;;;;4969066;28;20032;-80
2021/12/01 08:48:22;;;;;;;0.40;0.20;;;7.80;99.90;;;;;;4966715;28;20061;-81
2021/12/01 08:50:48;;;;;;;0.30;0.30;;;7.80;99.90;;;;;;4984528;28;20072;-81
2021/12/01 08:53:13;;;;;;;0.60;0.30;;;7.80;99.90;;;;;;5001159;28;20434;-80
2021/12/01 08:55:41;;;;;;;1.08;0.35;;;7.80;99.90;;;;;;4960982;28;20037;-80
2021/12/01 08:58:10;;;;;;;0.10;0.10;;;7.80;99.90;;;;;;4984913;28;20347;-81
2021/12/01 09:00:37;;;;;;;0.47;0.28;;;7.80;99.90;;;;;;4984532;28;20103;-81
2021/12/01 09:03:04;;;;;;;2.58;0.50;;;7.90;99.90;;;;;;4970746;28;20469;-80
2021/12/01 09:05:30;;;;;;;0.10;0.10;;;7.90;99.90;;;;;;4970946;28;20033;-81
2021/12/01 09:07:56;;;;;;;1.02;0.30;;;7.90;99.90;;;;;;5001560;28;20312;-81
2021/12/01 09:10:21;;;;;;;0.22;0.20;;;7.80;99.90;;;;;;4986360;28;20042;-80
2021/12/01 09:12:47;;;;;;;0.20;0.10;;;7.90;99.90;;;;;;5002647;28;20029;-81
2021/12/01 09:15:14;;;;;;;0.30;0.20;;;7.90;99.90;;;;;;4970815;28;20022;-81
2021/12/01 09:17:40;;;;;;;0.10;0.10;;;7.90;99.90;;;;;;4986388;28;20117;-81
2021/12/01 09:20:06;;;;;;;0.00;0.00;;;7.90;99.90;;;;;;4978756;28;20033;-81
2021/12/01 09:22:31;;;;;;;0.43;0.17;;;7.90;99.90;;;;;;4985561;28;20069;-80
2021/12/01 09:24:57;;;;;;;0.55;0.25;;;7.90;99.90;;;;;;4968762;28;20512;-83
2021/12/01 09:27:22;;;;;;;0.15;0.10;;;7.90;99.90;;;;;;4985573;28;20121;-82
2021/12/01 09:29:48;;;;;;;0.47;0.20;;;8.00;99.90;;;;;;4965453;28;20052;-82
2021/12/01 09:32:14;;;;;;;2.83;0.28;;;8.00;99.90;;;;;;4981434;28;20056;-82
2021/12/01 09:34:41;;;;;;;0.50;0.20;;;8.00;99.90;;;;;;4969439;28;20843;-82
2021/12/01 09:37:07;;;;;;;0.10;0.10;;;8.10;99.90;;;;;;4986134;28;20030;-82
2021/12/01 09:39:33;;;;;;;0.10;0.10;;;8.00;99.90;;;;;;5006835;28;20048;-82
2021/12/01 09:41:59;;;;;;;0.10;0.10;;;8.00;99.90;;;;;;4989833;28;20029;-82
2021/12/01 09:44:25;;;;;;;0.30;0.20;;;8.00;99.90;;;;;;4986986;28;20533;-80
2021/12/01 09:46:51;;;;;;;0.10;0.10;;;8.00;99.90;;;;;;4988092;28;20036;-80
2021/12/01 09:49:16;;;;;;;0.30;0.20;;;8.00;99.90;;;;;;4991099;28;20044;-82
2021/12/01 09:51:42;;;;;;;1.73;0.20;;;8.10;99.90;;;;;;4986395;28;20041;-82
2021/12/01 09:54:07;;;;;;;0.10;0.10;;;8.10;99.90;;;;;;4987496;28;20037;-80
2021/12/01 09:56:33;;;;;;;0.10;0.10;;;8.10;99.90;;;;;;4988929;28;20085;-80
2021/12/01 09:58:59;;;;;;;0.05;0.05;;;8.10;99.90;;;;;;4971445;28;20294;-80
2021/12/01 10:01:25;;;;;;;0.13;0.08;;;8.10;99.90;;;;;;4988511;28;20049;-80
2021/12/01 10:03:51;;;;;;;0.73;0.43;;;8.10;99.90;;;;;;4972362;28;20060;-80
2021/12/01 10:06:18;;;;;;;1.10;0.10;;;8.10;99.90;;;;;;4976276;28;20033;-80
2021/12/01 10:08:46;;;;;;;1.23;0.20;;;8.10;99.90;;;;;;4973302;28;20505;-80
2021/12/01 10:11:13;;;;;;;0.10;0.10;;;8.10;99.90;;;;;;4983224;28;20025;-80
2021/12/01 10:13:45;;;;;;;0.00;0.00;;;8.10;99.90;;;;;;5004179;28;20037;-80
2021/12/01 10:16:12;;;;;;;1.75;0.20;;;8.10;99.90;;;;;;4986747;28;20033;-80
2021/12/01 10:18:45;;;;;;;0.20;0.20;;;8.10;99.90;;;;;;4986131;28;20466;-80
2021/12/01 10:21:25;;;;;;;0.85;0.20;;;8.10;99.90;;;;;;4984861;28;20091;-80
2021/12/01 10:23:56;;;;;;;2.10;0.22;;;8.10;99.90;;;;;;4987476;28;20106;-80
2021/12/01 10:26:27;;;;;;;0.08;0.08;;;8.10;99.90;;;;;;4990958;28;20458;-80
2021/12/01 10:28:56;;;;;;;0.10;0.10;;;8.10;99.90;;;;;;4969515;28;20046;-83
2021/12/01 10:31:37;;;;;;;0.05;0.00;;;8.10;99.90;;;;;;5003349;28;20552;-82
2021/12/01 10:34:28;;;;;;;0.73;0.30;;;8.10;99.90;;;;;;4970745;28;20132;-80
2021/12/01 10:37:30;;;;;;;0.10;0.10;;;8.10;99.90;;;;;;5001302;28;20644;-82
2021/12/01 10:40:05;;;;;;;0.00;0.00;;;8.20;99.90;;;;;;4987075;28;20033;-82
2021/12/01 10:42:30;;;;;;;0.22;0.20;;;8.10;99.90;;;;;;5000963;28;20044;-80
2021/12/01 10:44:58;;;;;;;0.40;0.20;;;8.10;99.90;;;;;;4986440;28;20034;-83
2021/12/01 10:47:25;;;;;;;0.90;0.30;;;8.10;99.90;;;;;;4964271;28;20160;-82
2021/12/01 10:49:50;;;;;;;0.20;0.20;;;8.20;99.90;;;;;;5004601;28;20148;-80
2021/12/01 10:52:32;;;;;;;0.20;0.20;;;8.20;99.90;;;;;;4987913;28;20040;-83
2021/12/01 10:55:08;;;;;;;0.25;0.20;;;8.20;99.90;;;;;;4998228;28;20040;-81
2021/12/01 10:57:33;;;;;;;1.27;0.40;;;8.20;99.90;;;;;;5023397;28;20507;-81
2021/12/01 11:00:00;;;;;;;0.75;0.20;;;8.20;99.90;;;;;;4973080;28;20117;-81
2021/12/01 11:02:25;;;;;;;2.15;1.13;;;8.20;99.90;;;;;;4973065;28;20033;-81
2021/12/01 11:04:51;;;;;;;0.30;0.10;;;8.20;99.90;;;;;;4964385;28;20034;-81
2021/12/01 11:07:31;;;;;;;0.30;0.15;;;8.20;99.90;;;;;;4971307;28;20155;-81
2021/12/01 11:10:18;;;;;;;0.65;0.30;;;8.30;99.90;;;;;;4983032;28;20034;-81
2021/12/01 11:12:56;;;;;;;0.28;0.28;;;8.30;99.90;;;;;;4984183;28;20424;-81
2021/12/01 11:15:27;;;;;;;1.10;0.40;;;8.30;99.90;;;;;;4971223;28;20037;-82
2021/12/01 11:17:54;;;;;;;1.27;0.28;;;8.30;99.90;;;;;;4638917;28;10000306;-82
2021/12/01 11:20:39;;;;;;;0.20;0.20;;;8.30;99.90;;;;;;5004959;28;20501;-83
2021/12/01 11:23:08;;;;;;;0.20;0.20;;;8.30;99.90;;;;;;5001162;28;20394;-82
2021/12/01 11:25:36;;;;;;;0.10;0.10;;;8.30;99.90;;;;;;4997061;28;20036;-82
2021/12/01 11:28:02;;;;;;;0.17;0.10;;;8.40;99.90;;;;;;4997785;28;20513;-82
2021/12/01 11:30:28;;;;;;;0.10;0.10;;;8.30;99.90;;;;;;4987193;28;20072;-82
2021/12/01 11:32:53;;;;;;;0.28;0.20;;;8.30;99.90;;;;;;5000067;28;20073;-82
2021/12/01 11:35:19;;;;;;;0.10;0.10;;;8.30;99.90;;;;;;4969827;28;20041;-82
2021/12/01 11:37:44;;;;;;;0.13;0.13;;;8.30;99.90;;;;;;4998878;28;20034;-82
2021/12/01 11:40:10;;;;;;;0.20;0.20;;;8.30;99.90;;;;;;4985594;28;20026;-82
2021/12/01 11:42:36;;;;;;;1.08;0.30;;;8.30;99.90;;;;;;4965874;28;20549;-82
2021/12/01 11:45:02;;;;;;;0.63;0.47;;;8.30;99.90;;;;;;5000841;28;20052;-82
2021/12/01 11:47:27;;;;;;;0.38;0.32;;;8.30;99.90;;;;;;4968927;28;20034;-82
2021/12/01 11:49:53;;;;;;;0.32;0.32;;;8.30;99.90;;;;;;4963249;28;20482;-82
2021/12/01 11:52:19;;;;;;;0.63;0.50;;;8.30;99.90;;;;;;5005661;28;20029;-82
2021/12/01 11:54:44;;;;;;;1.23;0.40;;;8.30;99.90;;;;;;4970677;28;20049;-82
2021/12/01 11:57:10;;;;;;;0.80;0.57;;;8.30;99.90;;;;;;4971946;28;20466;-82
2021/12/01 11:59:37;;;;;;;3.30;1.17;;;8.30;99.90;;;;;;4987220;28;20034;-82
2021/12/01 12:02:04;;;;;;;2.00;1.05;;;8.30;99.90;;;;;;4966864;28;20025;-83
2021/12/01 12:04:53;;;;;;;1.27;0.52;;;8.20;99.90;;;;;;4984895;28;20041;-82
2021/12/01 12:07:25;;;;;;;4.82;0.73;;;8.20;99.90;;;;;;4971417;28;20091;-82
2021/12/01 12:10:04;;;;;;;2.63;0.80;;;8.20;99.90;;;;;;4990683;28;20084;-83
2021/12/01 12:12:46;;;;;;;4.32;1.48;;;8.20;99.90;;;;;;4986173;28;20068;-82
2021/12/01 12:15:12;;;;;;;4.40;1.33;;;8.10;99.90;;;;;;4970853;28;20385;-82
2021/12/01 12:17:37;;;;;;;1.88;0.70;;;8.10;99.90;;;;;;4982949;28;20039;-82
2021/12/01 12:20:18;;;;;;;1.63;1.08;;;8.00;99.90;;;;;;4984342;28;20041;-82
2021/12/01 12:22:45;;;;;;;9.13;2.00;;;8.00;99.90;;;;;;4970593;28;20481;-82
2021/12/01 12:25:32;;;;;;;1.88;0.65;;;8.00;99.90;;;;;;5003644;28;20033;-82
2021/12/01 12:27:58;;;;;;;4.45;0.80;;;7.90;99.90;;;;;;4991723;28;20195;-82
2021/12/01 12:30:29;;;;;;;3.65;1.17;;;7.90;99.90;;;;;;4985765;28;20507;-82
2021/12/01 12:33:13;;;;;;;4.93;1.50;;;7.90;99.90;;;;;;5015061;28;20036;-82
2021/12/01 12:35:43;;;;;;;4.47;1.17;;;7.90;99.90;;;;;;5000752;28;20083;-82
2021/12/01 12:38:08;;;;;;;7.20;1.30;;;7.90;99.90;;;;;;4991402;28;20394;-82
2021/12/01 12:40:34;;;;;;;1.73;0.75;;;7.90;99.90;;;;;;4971376;28;20038;-82
2021/12/01 12:43:36;;;;;;;2.00;0.60;;;8.00;99.90;;;;;;4967214;28;20025;-82
2021/12/01 12:46:11;;;;;;;0.85;0.60;;;8.00;99.90;;;;;;4928017;28;20044;-82
2021/12/01 12:49:03;;;;;;;3.22;1.20;;;8.00;99.90;;;;;;4987331;28;20057;-82
2021/12/01 12:51:33;;;;;;;7.38;1.08;;;8.00;99.90;;;;;;4999008;28;20078;-82
2021/12/01 12:54:02;;;;;;;6.63;1.40;;;8.00;99.90;;;;;;4968984;28;20278;-82
2021/12/01 12:56:30;;;;;;;1.65;0.80;;;8.10;99.90;;;;;;5003752;28;20026;-82
2021/12/01 12:59:22;;;;;;;2.80;0.93;;;8.00;99.90;;;;;;4978479;28;20120;-82
2021/12/01 13:02:15;;;;;;;9.15;1.23;;;8.00;99.90;;;;;;4990401;28;20036;-82
2021/12/01 13:04:59;;;;;;;1.88;0.50;;;8.00;99.90;;;;;;4978651;28;20195;-82